sensor_id;sensor_type;location;lat;lon;timestamp;pressure;altitude;pressure_sealevel;temperature;humidity
6869;BME280;3473;42.604;23.496;2022-09-09T00:01:13;22330.75;;;-140.19;66.30
6869;BME280;3473;42.604;23.496;2022-09-09T00:03:12;22313.28;;;-140.19;66.67
6869;BME280;3473;42.604;23.496;2022-09-09T00:05:15;22443.41;;;-140.19;66.75
6869;BME280;3473;42.604;23.496;2022-09-09T00:07:14;22354.06;;;-140.19;67.37
6869;BME280;3473;42.604;23.496;2022-09-09T00:09:12;22332.69;;;-140.19;66.98
6869;BME280;3473;42.604;23.496;2022-09-09T00:11:05;22276.38;;;-140.19;67.30
6869;BME280;3473;42.604;23.496;2022-09-09T00:13:02;22356.00;;;-140.19;66.64
6869;BME280;3473;42.604;23.496;2022-09-09T00:15:01;22390.97;;;-140.19;66.92
6869;BME280;3473;42.604;23.496;2022-09-09T00:17:00;22222.00;;;-140.19;67.16
6869;BME280;3473;42.604;23.496;2022-09-09T00:19:00;22309.38;;;-140.19;67.74
6869;BME280;3473;42.604;23.496;2022-09-09T00:20:57;22268.59;;;-140.19;68.15
6869;BME280;3473;42.604;23.496;2022-09-09T00:22:54;22241.41;;;-140.19;68.36
6869;BME280;3473;42.604;23.496;2022-09-09T00:24:52;22235.59;;;-140.19;67.90
6869;BME280;3473;42.604;23.496;2022-09-09T00:26:48;22365.72;;;-140.19;68.31
6869;BME280;3473;42.604;23.496;2022-09-09T00:28:48;22354.06;;;-140.19;68.86
6869;BME280;3473;42.604;23.496;2022-09-09T00:30:42;22361.84;;;-140.19;69.21
6869;BME280;3473;42.604;23.496;2022-09-09T00:32:34;22243.34;;;-140.19;69.19
6869;BME280;3473;42.604;23.496;2022-09-09T00:34:29;22309.38;;;-140.19;69.01
6869;BME280;3473;42.604;23.496;2022-09-09T00:36:23;22286.09;;;-140.19;68.63
6869;BME280;3473;42.604;23.496;2022-09-09T00:38:22;22309.38;;;-140.19;69.23
6869;BME280;3473;42.604;23.496;2022-09-09T00:40:25;22389.03;;;-140.19;69.23
6869;BME280;3473;42.604;23.496;2022-09-09T00:42:20;22326.88;;;-140.19;69.63
6869;BME280;3473;42.604;23.496;2022-09-09T00:44:25;22204.50;;;-140.19;69.39
6869;BME280;3473;42.604;23.496;2022-09-09T00:46:28;22408.44;;;-140.19;68.71
6869;BME280;3473;42.604;23.496;2022-09-09T00:48:32;22200.63;;;-140.19;67.06
6869;BME280;3473;42.604;23.496;2022-09-09T00:50:48;22288.03;;;-140.19;66.55
6869;BME280;3473;42.604;23.496;2022-09-09T00:52:50;22196.75;;;-140.19;66.74
6869;BME280;3473;42.604;23.496;2022-09-09T00:54:52;22321.03;;;-140.19;66.47
6869;BME280;3473;42.604;23.496;2022-09-09T00:57:00;22340.47;;;-140.19;66.65
6869;BME280;3473;42.604;23.496;2022-09-09T00:59:04;22280.25;;;-140.19;65.61
6869;BME280;3473;42.604;23.496;2022-09-09T01:01:03;22323.00;;;-140.19;65.67
6869;BME280;3473;42.604;23.496;2022-09-09T01:03:27;22286.09;;;-140.19;66.81
6869;BME280;3473;42.604;23.496;2022-09-09T01:05:27;22272.50;;;-140.19;67.48
6869;BME280;3473;42.604;23.496;2022-09-09T01:07:23;22375.44;;;-140.19;67.47
6869;BME280;3473;42.604;23.496;2022-09-09T01:09:21;22321.03;;;-140.19;67.20
6869;BME280;3473;42.604;23.496;2022-09-09T01:11:20;22270.53;;;-140.19;66.87
6869;BME280;3473;42.604;23.496;2022-09-09T01:13:19;22377.38;;;-140.19;67.02
6869;BME280;3473;42.604;23.496;2022-09-09T01:15:17;22439.53;;;-140.19;67.42
6869;BME280;3473;42.604;23.496;2022-09-09T01:17:16;22307.44;;;-140.19;67.16
6869;BME280;3473;42.604;23.496;2022-09-09T01:19:15;22284.13;;;-140.19;67.69
6869;BME280;3473;42.604;23.496;2022-09-09T01:21:18;22348.25;;;-140.19;67.63
6869;BME280;3473;42.604;23.496;2022-09-09T01:23:33;22410.41;;;-140.19;67.12
6869;BME280;3473;42.604;23.496;2022-09-09T01:26:02;22171.50;;;-140.19;64.58
6869;BME280;3473;42.604;23.496;2022-09-09T01:27:58;22144.28;;;-140.19;64.76
6869;BME280;3473;42.604;23.496;2022-09-09T01:29:51;22274.44;;;-140.19;65.23
6869;BME280;3473;42.604;23.496;2022-09-09T01:31:53;22324.94;;;-140.19;65.20
6869;BME280;3473;42.604;23.496;2022-09-09T01:33:46;22274.44;;;-140.19;65.19
6869;BME280;3473;42.604;23.496;2022-09-09T01:35:45;22301.63;;;-140.19;64.94
6869;BME280;3473;42.604;23.496;2022-09-09T01:37:39;22253.06;;;-140.19;65.58
6869;BME280;3473;42.604;23.496;2022-09-09T01:39:33;22330.75;;;-140.19;66.36
6869;BME280;3473;42.604;23.496;2022-09-09T01:41:28;22559.97;;;-140.19;66.35
6869;BME280;3473;42.604;23.496;2022-09-09T01:43:21;22398.75;;;-140.19;66.55
6869;BME280;3473;42.604;23.496;2022-09-09T01:45:14;22251.13;;;-140.19;65.43
6869;BME280;3473;42.604;23.496;2022-09-09T01:47:06;22348.25;;;-140.19;64.49
6869;BME280;3473;42.604;23.496;2022-09-09T01:48:59;22251.13;;;-140.19;64.86
6869;BME280;3473;42.604;23.496;2022-09-09T01:50:53;22284.13;;;-140.19;64.63
6869;BME280;3473;42.604;23.496;2022-09-09T01:52:47;22122.94;;;-140.19;63.66
6869;BME280;3473;42.604;23.496;2022-09-09T01:54:40;22286.09;;;-140.19;63.47
6869;BME280;3473;42.604;23.496;2022-09-09T01:56:42;22328.81;;;-140.19;63.24
6869;BME280;3473;42.604;23.496;2022-09-09T01:58:48;22276.38;;;-140.19;63.33
6869;BME280;3473;42.604;23.496;2022-09-09T02:00:50;22356.00;;;-140.19;63.10
6869;BME280;3473;42.604;23.496;2022-09-09T02:02:59;22373.50;;;-140.19;64.25
6869;BME280;3473;42.604;23.496;2022-09-09T02:04:54;22381.25;;;-140.19;65.00
6869;BME280;3473;42.604;23.496;2022-09-09T02:06:50;22420.09;;;-140.19;65.58
6869;BME280;3473;42.604;23.496;2022-09-09T02:08:47;22394.84;;;-140.19;66.08
6869;BME280;3473;42.604;23.496;2022-09-09T02:10:43;22361.84;;;-140.19;66.41
6869;BME280;3473;42.604;23.496;2022-09-09T02:12:41;22278.31;;;-140.19;66.50
6869;BME280;3473;42.604;23.496;2022-09-09T02:14:39;22332.69;;;-140.19;67.09
6869;BME280;3473;42.604;23.496;2022-09-09T02:16:35;22299.69;;;-140.19;66.11
6869;BME280;3473;42.604;23.496;2022-09-09T02:18:35;22309.38;;;-140.19;65.09
6869;BME280;3473;42.604;23.496;2022-09-09T02:20:28;22328.81;;;-140.19;64.42
6869;BME280;3473;42.604;23.496;2022-09-09T02:22:24;22330.75;;;-140.19;64.30
6869;BME280;3473;42.604;23.496;2022-09-09T02:24:18;22255.00;;;-140.19;63.84
6869;BME280;3473;42.604;23.496;2022-09-09T02:26:12;22181.19;;;-140.19;63.13
6869;BME280;3473;42.604;23.496;2022-09-09T02:28:12;22161.78;;;-140.19;62.70
6869;BME280;3473;42.604;23.496;2022-09-09T02:30:07;22033.59;;;-140.19;63.69
6869;BME280;3473;42.604;23.496;2022-09-09T02:32:02;22348.25;;;-140.19;63.08
6869;BME280;3473;42.604;23.496;2022-09-09T02:33:59;22288.03;;;-140.19;63.08
6869;BME280;3473;42.604;23.496;2022-09-09T02:35:52;22340.47;;;-140.19;63.10
6869;BME280;3473;42.604;23.496;2022-09-09T02:37:48;22371.53;;;-140.19;63.20
6869;BME280;3473;42.604;23.496;2022-09-09T02:39:42;22235.59;;;-140.19;63.42
6869;BME280;3473;42.604;23.496;2022-09-09T02:41:36;22414.28;;;-140.19;63.09
6869;BME280;3473;42.604;23.496;2022-09-09T02:43:32;22484.22;;;-140.19;63.09
6869;BME280;3473;42.604;23.496;2022-09-09T02:45:29;22247.25;;;-140.19;62.65
6869;BME280;3473;42.604;23.496;2022-09-09T02:47:28;22288.03;;;-140.19;62.82
6869;BME280;3473;42.604;23.496;2022-09-09T02:49:27;21431.56;;;-140.19;62.36
6869;BME280;3473;42.604;23.496;2022-09-09T02:51:28;22253.06;;;-140.19;62.07
6869;BME280;3473;42.604;23.496;2022-09-09T02:53:26;22340.47;;;-140.19;62.12
6869;BME280;3473;42.604;23.496;2022-09-09T02:55:23;22266.66;;;-140.19;61.99
6869;BME280;3473;42.604;23.496;2022-09-09T02:57:23;22321.03;;;-140.19;62.65
6869;BME280;3473;42.604;23.496;2022-09-09T02:59:20;22260.84;;;-140.19;62.39
6869;BME280;3473;42.604;23.496;2022-09-09T03:01:12;22354.06;;;-140.19;63.01
6869;BME280;3473;42.604;23.496;2022-09-09T03:03:05;22319.09;;;-140.19;64.29
6869;BME280;3473;42.604;23.496;2022-09-09T03:04:57;22336.59;;;-140.19;65.34
6869;BME280;3473;42.604;23.496;2022-09-09T03:06:49;22410.41;;;-140.19;66.51
6869;BME280;3473;42.604;23.496;2022-09-09T03:08:41;22433.69;;;-140.19;67.45
6869;BME280;3473;42.604;23.496;2022-09-09T03:10:33;22330.75;;;-140.19;68.60
6869;BME280;3473;42.604;23.496;2022-09-09T03:12:27;22418.16;;;-140.19;69.77
6869;BME280;3473;42.604;23.496;2022-09-09T03:14:21;22429.81;;;-140.19;71.43
6869;BME280;3473;42.604;23.496;2022-09-09T03:16:15;22402.63;;;-140.19;72.48
6869;BME280;3473;42.604;23.496;2022-09-09T03:18:08;22427.88;;;-140.19;73.45
6869;BME280;3473;42.604;23.496;2022-09-09T03:20:01;22264.72;;;-140.19;73.69
6869;BME280;3473;42.604;23.496;2022-09-09T03:21:53;22350.19;;;-140.19;73.68
6869;BME280;3473;42.604;23.496;2022-09-09T03:23:45;22348.25;;;-140.19;73.05
6869;BME280;3473;42.604;23.496;2022-09-09T03:25:37;22262.78;;;-140.19;72.48
6869;BME280;3473;42.604;23.496;2022-09-09T03:27:30;22301.63;;;-140.19;73.25
6869;BME280;3473;42.604;23.496;2022-09-09T03:29:23;22198.69;;;-140.19;73.83
6869;BME280;3473;42.604;23.496;2022-09-09T03:31:15;22144.28;;;-140.19;72.98
6869;BME280;3473;42.604;23.496;2022-09-09T03:33:07;22076.31;;;-140.19;72.87
6869;BME280;3473;42.604;23.496;2022-09-09T03:34:59;22060.78;;;-140.19;73.56
6869;BME280;3473;42.604;23.496;2022-09-09T03:36:51;22150.13;;;-140.19;72.96
6869;BME280;3473;42.604;23.496;2022-09-09T03:38:43;22018.06;;;-140.19;73.38
6869;BME280;3473;42.604;23.496;2022-09-09T03:40:35;22045.25;;;-140.19;74.02
6869;BME280;3473;42.604;23.496;2022-09-09T03:42:27;22381.25;;;-140.19;74.33
6869;BME280;3473;42.604;23.496;2022-09-09T03:44:22;22037.47;;;-140.19;74.37
6869;BME280;3473;42.604;23.496;2022-09-09T03:46:14;22556.06;;;-140.19;73.51
6869;BME280;3473;42.604;23.496;2022-09-09T03:48:06;22128.75;;;-140.19;73.46
6869;BME280;3473;42.604;23.496;2022-09-09T03:50:00;21992.81;;;-140.19;74.49
6869;BME280;3473;42.604;23.496;2022-09-09T03:51:52;22002.50;;;-140.19;74.23
6869;BME280;3473;42.604;23.496;2022-09-09T03:53:44;21965.63;;;-140.19;75.60
6869;BME280;3473;42.604;23.496;2022-09-09T03:55:37;21901.53;;;-140.19;75.92
6869;BME280;3473;42.604;23.496;2022-09-09T03:57:29;21812.19;;;-140.19;75.98
6869;BME280;3473;42.604;23.496;2022-09-09T03:59:22;21860.75;;;-140.19;76.07
6869;BME280;3473;42.604;23.496;2022-09-09T04:01:15;21856.84;;;-140.19;76.71
6869;BME280;3473;42.604;23.496;2022-09-09T04:03:08;21814.13;;;-140.19;76.84
6869;BME280;3473;42.604;23.496;2022-09-09T04:05:00;21757.81;;;-140.19;76.68
6869;BME280;3473;42.604;23.496;2022-09-09T04:06:52;21796.66;;;-140.19;76.75
6869;BME280;3473;42.604;23.496;2022-09-09T04:08:44;21629.66;;;-140.19;76.12
6869;BME280;3473;42.604;23.496;2022-09-09T04:10:39;21746.16;;;-140.19;76.39
6869;BME280;3473;42.604;23.496;2022-09-09T04:12:31;21643.25;;;-140.19;76.55
6869;BME280;3473;42.604;23.496;2022-09-09T04:14:24;21664.59;;;-140.19;76.44
6869;BME280;3473;42.604;23.496;2022-09-09T04:16:19;21666.53;;;-140.19;76.44
6869;BME280;3473;42.604;23.496;2022-09-09T04:18:11;21674.31;;;-140.19;76.90
6869;BME280;3473;42.604;23.496;2022-09-09T04:20:03;21705.38;;;-140.19;77.31
6869;BME280;3473;42.604;23.496;2022-09-09T04:21:55;21658.78;;;-140.19;77.13
6869;BME280;3473;42.604;23.496;2022-09-09T04:23:48;21670.41;;;-140.19;77.39
6869;BME280;3473;42.604;23.496;2022-09-09T04:25:43;21699.56;;;-140.19;77.32
6869;BME280;3473;42.604;23.496;2022-09-09T04:27:37;21641.28;;;-140.19;77.00
6869;BME280;3473;42.604;23.496;2022-09-09T04:29:30;21616.06;;;-140.19;77.01
6869;BME280;3473;42.604;23.496;2022-09-09T04:31:23;21701.50;;;-140.19;76.58
6869;BME280;3473;42.604;23.496;2022-09-09T04:33:16;21664.59;;;-140.19;76.17
6869;BME280;3473;42.604;23.496;2022-09-09T04:35:08;21515.06;;;-140.19;76.79
6869;BME280;3473;42.604;23.496;2022-09-09T04:37:00;21701.50;;;-140.19;76.66
6869;BME280;3473;42.604;23.496;2022-09-09T04:38:52;21637.41;;;-140.19;75.65
6869;BME280;3473;42.604;23.496;2022-09-09T04:40:46;21602.47;;;-140.19;75.71
6869;BME280;3473;42.604;23.496;2022-09-09T04:42:39;21763.63;;;-140.19;75.59
6869;BME280;3473;42.604;23.496;2022-09-09T04:44:35;21670.41;;;-140.19;75.21
6869;BME280;3473;42.604;23.496;2022-09-09T04:46:28;21651.00;;;-140.19;74.83
6869;BME280;3473;42.604;23.496;2022-09-09T04:48:20;21736.44;;;-140.19;75.30
6869;BME280;3473;42.604;23.496;2022-09-09T04:50:13;21726.75;;;-140.19;75.04
6869;BME280;3473;42.604;23.496;2022-09-09T04:52:05;21748.09;;;-140.19;73.53
6869;BME280;3473;42.604;23.496;2022-09-09T04:53:57;21767.53;;;-140.19;73.89
6869;BME280;3473;42.604;23.496;2022-09-09T04:55:49;21804.41;;;-140.19;73.47
6869;BME280;3473;42.604;23.496;2022-09-09T04:57:41;21711.22;;;-140.19;72.34
6869;BME280;3473;42.604;23.496;2022-09-09T04:59:33;21720.91;;;-140.19;72.14
6869;BME280;3473;42.604;23.496;2022-09-09T05:01:29;21796.66;;;-140.19;71.72
6869;BME280;3473;42.604;23.496;2022-09-09T05:03:22;21699.56;;;-140.19;71.79
6869;BME280;3473;42.604;23.496;2022-09-09T05:05:15;21783.06;;;-140.19;71.65
6869;BME280;3473;42.604;23.496;2022-09-09T05:07:09;21742.28;;;-140.19;71.26
6869;BME280;3473;42.604;23.496;2022-09-09T05:09:01;21794.72;;;-140.19;72.01
6869;BME280;3473;42.604;23.496;2022-09-09T05:10:53;21880.16;;;-140.19;72.26
6869;BME280;3473;42.604;23.496;2022-09-09T05:12:52;21781.13;;;-140.19;72.39
6869;BME280;3473;42.604;23.496;2022-09-09T05:14:44;21790.81;;;-140.19;71.51
6869;BME280;3473;42.604;23.496;2022-09-09T05:16:38;21864.63;;;-140.19;69.95
6869;BME280;3473;42.604;23.496;2022-09-09T05:18:30;21952.03;;;-140.19;69.33
6869;BME280;3473;42.604;23.496;2022-09-09T05:20:22;21922.88;;;-140.19;67.88
6869;BME280;3473;42.604;23.496;2022-09-09T05:22:18;21961.72;;;-140.19;67.59
6869;BME280;3473;42.604;23.496;2022-09-09T05:24:10;21876.28;;;-140.19;67.01
6869;BME280;3473;42.604;23.496;2022-09-09T05:26:03;21897.63;;;-140.19;66.78
6869;BME280;3473;42.604;23.496;2022-09-09T05:27:55;22025.81;;;-140.19;66.18
6869;BME280;3473;42.604;23.496;2022-09-09T05:29:47;22020.00;;;-140.19;65.88
6869;BME280;3473;42.604;23.496;2022-09-09T05:31:41;21985.03;;;-140.19;64.85
6869;BME280;3473;42.604;23.496;2022-09-09T05:33:34;21994.75;;;-140.19;64.12
6869;BME280;3473;42.604;23.496;2022-09-09T05:35:26;22012.22;;;-140.19;63.75
6869;BME280;3473;42.604;23.496;2022-09-09T05:37:18;22056.91;;;-140.19;62.55
6869;BME280;3473;42.604;23.496;2022-09-09T05:39:10;22111.28;;;-140.19;63.08
6869;BME280;3473;42.604;23.496;2022-09-09T05:41:03;21884.03;;;-140.19;62.02
6869;BME280;3473;42.604;23.496;2022-09-09T05:43:00;22000.56;;;-140.19;62.42
6869;BME280;3473;42.604;23.496;2022-09-09T05:44:52;64028.16;;;-140.19;0.00
6869;BME280;3473;42.604;23.496;2022-09-09T05:46:46;21990.88;;;-140.19;100.00
6869;BME280;3473;42.604;23.496;2022-09-09T05:48:39;21990.88;;;-140.19;62.07
6869;BME280;3473;42.604;23.496;2022-09-09T05:50:31;21952.03;;;-140.19;59.02
6869;BME280;3473;42.604;23.496;2022-09-09T05:52:23;21983.09;;;-140.19;59.14
6869;BME280;3473;42.604;23.496;2022-09-09T05:54:16;22107.41;;;-140.19;59.56
6869;BME280;3473;42.604;23.496;2022-09-09T05:56:10;22021.94;;;-140.19;58.76
6869;BME280;3473;42.604;23.496;2022-09-09T05:58:03;22080.19;;;-140.19;58.26
6869;BME280;3473;42.604;23.496;2022-09-09T05:59:55;22023.88;;;-140.19;58.92
6869;BME280;3473;42.604;23.496;2022-09-09T06:01:48;22084.09;;;-140.19;58.50
6869;BME280;3473;42.604;23.496;2022-09-09T06:03:41;22093.78;;;-140.19;57.98
6869;BME280;3473;42.604;23.496;2022-09-09T06:05:33;22128.75;;;-140.19;56.54
6869;BME280;3473;42.604;23.496;2022-09-09T06:07:26;22119.03;;;-140.19;57.07
6869;BME280;3473;42.604;23.496;2022-09-09T06:09:18;21988.91;;;-140.19;56.91
6869;BME280;3473;42.604;23.496;2022-09-09T06:11:12;22091.84;;;-140.19;57.72
6869;BME280;3473;42.604;23.496;2022-09-09T06:13:05;21979.22;;;-140.19;57.02
6869;BME280;3473;42.604;23.496;2022-09-09T06:14:57;22066.59;;;-140.19;56.41
6869;BME280;3473;42.604;23.496;2022-09-09T06:16:52;22076.31;;;-140.19;56.59
6869;BME280;3473;42.604;23.496;2022-09-09T06:18:44;22014.16;;;-140.19;56.66
6869;BME280;3473;42.604;23.496;2022-09-09T06:20:39;21926.78;;;-140.19;57.08
6869;BME280;3473;42.604;23.496;2022-09-09T06:22:31;21955.91;;;-140.19;57.12
6869;BME280;3473;42.604;23.496;2022-09-09T06:24:23;22004.47;;;-140.19;56.86
6869;BME280;3473;42.604;23.496;2022-09-09T06:26:16;21998.63;;;-140.19;55.68
6869;BME280;3473;42.604;23.496;2022-09-09T06:28:09;21977.28;;;-140.19;55.60
6869;BME280;3473;42.604;23.496;2022-09-09T06:30:02;21948.13;;;-140.19;54.80
6869;BME280;3473;42.604;23.496;2022-09-09T06:31:55;21950.06;;;-140.19;53.66
6869;BME280;3473;42.604;23.496;2022-09-09T06:33:49;21944.25;;;-140.19;53.72
6869;BME280;3473;42.604;23.496;2022-09-09T06:35:42;22037.47;;;-140.19;53.67
6869;BME280;3473;42.604;23.496;2022-09-09T06:37:33;21990.88;;;-140.19;53.02
6869;BME280;3473;42.604;23.496;2022-09-09T06:39:27;21977.28;;;-140.19;51.74
6869;BME280;3473;42.604;23.496;2022-09-09T06:41:21;22212.28;;;-140.19;50.38
6869;BME280;3473;42.604;23.496;2022-09-09T06:43:14;22002.50;;;-140.19;50.74
6869;BME280;3473;42.604;23.496;2022-09-09T06:45:10;22010.28;;;-140.19;49.99
6869;BME280;3473;42.604;23.496;2022-09-09T06:47:04;21998.63;;;-140.19;47.58
6869;BME280;3473;42.604;23.496;2022-09-09T06:48:56;22220.03;;;-140.19;46.74
6869;BME280;3473;42.604;23.496;2022-09-09T06:50:50;21990.88;;;-140.19;47.14
6869;BME280;3473;42.604;23.496;2022-09-09T06:52:42;22097.69;;;-140.19;48.73
6869;BME280;3473;42.604;23.496;2022-09-09T06:54:38;22155.94;;;-140.19;48.28
6869;BME280;3473;42.604;23.496;2022-09-09T06:56:31;22175.38;;;-140.19;46.29
6869;BME280;3473;42.604;23.496;2022-09-09T06:58:25;22023.88;;;-140.19;46.25
6869;BME280;3473;42.604;23.496;2022-09-09T07:00:17;22064.66;;;-140.19;46.35
6869;BME280;3473;42.604;23.496;2022-09-09T07:02:10;21955.91;;;-140.19;47.17
6869;BME280;3473;42.604;23.496;2022-09-09T07:04:04;21985.03;;;-140.19;47.08
6869;BME280;3473;42.604;23.496;2022-09-09T07:05:58;22058.84;;;-140.19;47.08
6869;BME280;3473;42.604;23.496;2022-09-09T07:07:50;22109.34;;;-140.19;44.94
6869;BME280;3473;42.604;23.496;2022-09-09T07:09:42;22107.41;;;-140.19;44.77
6869;BME280;3473;42.604;23.496;2022-09-09T07:11:38;22031.66;;;-140.19;45.40
6869;BME280;3473;42.604;23.496;2022-09-09T07:13:32;22187.03;;;-140.19;45.35
6869;BME280;3473;42.604;23.496;2022-09-09T07:15:24;22224.09;;;-140.19;43.99
6869;BME280;3473;42.604;23.496;2022-09-09T07:17:18;22010.28;;;-140.19;43.20
6869;BME280;3473;42.604;23.496;2022-09-09T07:19:10;22138.47;;;-140.19;44.29
6869;BME280;3473;42.604;23.496;2022-09-09T07:21:03;21990.88;;;-140.19;43.38
6869;BME280;3473;42.604;23.496;2022-09-09T07:22:57;22130.69;;;-140.19;42.88
6869;BME280;3473;42.604;23.496;2022-09-09T07:24:50;22109.34;;;-140.19;43.22
6869;BME280;3473;42.604;23.496;2022-09-09T07:26:42;22169.53;;;-140.19;43.27
6869;BME280;3473;42.604;23.496;2022-09-09T07:28:36;22072.44;;;-140.19;43.12
6869;BME280;3473;42.604;23.496;2022-09-09T07:30:28;22097.69;;;-140.19;42.93
6869;BME280;3473;42.604;23.496;2022-09-09T07:32:22;22056.91;;;-140.19;42.46
6869;BME280;3473;42.604;23.496;2022-09-09T07:34:14;22029.72;;;-140.19;41.72
6869;BME280;3473;42.604;23.496;2022-09-09T07:36:08;22014.16;;;-140.19;40.92
6869;BME280;3473;42.604;23.496;2022-09-09T07:38:01;22095.75;;;-140.19;41.27
6869;BME280;3473;42.604;23.496;2022-09-09T07:39:53;22002.50;;;-140.19;40.75
6869;BME280;3473;42.604;23.496;2022-09-09T07:41:47;22056.91;;;-140.19;41.87
6869;BME280;3473;42.604;23.496;2022-09-09T07:43:41;22023.88;;;-140.19;41.24
6869;BME280;3473;42.604;23.496;2022-09-09T07:45:34;22121.00;;;-140.19;41.54
6869;BME280;3473;42.604;23.496;2022-09-09T07:47:28;22144.28;;;-140.19;40.20
6869;BME280;3473;42.604;23.496;2022-09-09T07:49:20;22163.72;;;-140.19;39.29
6869;BME280;3473;42.604;23.496;2022-09-09T07:51:15;21476.22;;;-140.19;39.03
6869;BME280;3473;42.604;23.496;2022-09-09T07:53:08;22155.94;;;-140.19;38.75
6869;BME280;3473;42.604;23.496;2022-09-09T07:55:01;21988.91;;;-140.19;40.45
6869;BME280;3473;42.604;23.496;2022-09-09T07:56:55;22072.44;;;-140.19;39.16
6869;BME280;3473;42.604;23.496;2022-09-09T07:58:47;22060.78;;;-140.19;39.09
6869;BME280;3473;42.604;23.496;2022-09-09T08:00:40;21944.25;;;-140.19;39.66
6869;BME280;3473;42.604;23.496;2022-09-09T08:02:35;22056.91;;;-140.19;39.17
6869;BME280;3473;42.604;23.496;2022-09-09T08:04:27;22121.00;;;-140.19;39.14
6869;BME280;3473;42.604;23.496;2022-09-09T08:06:20;22074.38;;;-140.19;38.16
6869;BME280;3473;42.604;23.496;2022-09-09T08:08:14;22060.78;;;-140.19;38.17
6869;BME280;3473;42.604;23.496;2022-09-09T08:10:07;21981.16;;;-140.19;37.35
6869;BME280;3473;42.604;23.496;2022-09-09T08:11:59;21942.31;;;-140.19;36.71
6869;BME280;3473;42.604;23.496;2022-09-09T08:13:53;22089.91;;;-140.19;36.07
6869;BME280;3473;42.604;23.496;2022-09-09T08:15:46;22126.81;;;-140.19;37.11
6869;BME280;3473;42.604;23.496;2022-09-09T08:17:42;22095.75;;;-140.19;36.04
6869;BME280;3473;42.604;23.496;2022-09-09T08:19:35;22150.13;;;-140.19;35.85
6869;BME280;3473;42.604;23.496;2022-09-09T08:21:28;22012.22;;;-140.19;35.49
6869;BME280;3473;42.604;23.496;2022-09-09T08:23:21;22054.94;;;-140.19;36.59
6869;BME280;3473;42.604;23.496;2022-09-09T08:25:16;21985.03;;;-140.19;35.99
6869;BME280;3473;42.604;23.496;2022-09-09T08:27:08;22060.78;;;-140.19;36.57
6869;BME280;3473;42.604;23.496;2022-09-09T08:29:02;22027.75;;;-140.19;37.00
6869;BME280;3473;42.604;23.496;2022-09-09T08:30:55;22037.47;;;-140.19;35.52
6869;BME280;3473;42.604;23.496;2022-09-09T08:32:48;22041.34;;;-140.19;35.11
6869;BME280;3473;42.604;23.496;2022-09-09T08:34:41;22245.28;;;-140.19;34.60
6869;BME280;3473;42.604;23.496;2022-09-09T08:36:36;22047.19;;;-140.19;34.40
6869;BME280;3473;42.604;23.496;2022-09-09T08:38:28;21998.63;;;-140.19;35.46
6869;BME280;3473;42.604;23.496;2022-09-09T08:40:27;22021.94;;;-140.19;34.87
6869;BME280;3473;42.604;23.496;2022-09-09T08:42:34;22076.31;;;-140.19;34.47
6869;BME280;3473;42.604;23.496;2022-09-09T08:44:36;21985.03;;;-140.19;35.15
6869;BME280;3473;42.604;23.496;2022-09-09T08:46:39;21975.31;;;-140.19;35.08
6869;BME280;3473;42.604;23.496;2022-09-09T08:48:45;21961.72;;;-140.19;34.92
6869;BME280;3473;42.604;23.496;2022-09-09T08:50:44;22018.06;;;-140.19;34.57
6869;BME280;3473;42.604;23.496;2022-09-09T08:52:39;21878.22;;;-140.19;35.25
6869;BME280;3473;42.604;23.496;2022-09-09T08:54:35;22239.47;;;-140.19;35.79
6869;BME280;3473;42.604;23.496;2022-09-09T08:56:31;21955.91;;;-140.19;35.95
6869;BME280;3473;42.604;23.496;2022-09-09T08:58:26;21919.00;;;-140.19;34.67
6869;BME280;3473;42.604;23.496;2022-09-09T09:00:20;21994.75;;;-140.19;34.94
6869;BME280;3473;42.604;23.496;2022-09-09T09:02:16;21860.75;;;-140.19;34.60
6869;BME280;3473;42.604;23.496;2022-09-09T09:04:25;21903.47;;;-140.19;34.63
6869;BME280;3473;42.604;23.496;2022-09-09T09:06:28;22117.09;;;-140.19;35.23
6869;BME280;3473;42.604;23.496;2022-09-09T09:08:32;21948.13;;;-140.19;36.06
6869;BME280;3473;42.604;23.496;2022-09-09T09:10:38;21983.09;;;-140.19;36.92
6869;BME280;3473;42.604;23.496;2022-09-09T09:12:37;22053.00;;;-140.19;36.52
6869;BME280;3473;42.604;23.496;2022-09-09T09:14:34;21979.22;;;-140.19;36.95
6869;BME280;3473;42.604;23.496;2022-09-09T09:16:32;21971.44;;;-140.19;37.15
6869;BME280;3473;42.604;23.496;2022-09-09T09:18:27;21946.19;;;-140.19;37.12
6869;BME280;3473;42.604;23.496;2022-09-09T09:20:27;22006.41;;;-140.19;37.08
6869;BME280;3473;42.604;23.496;2022-09-09T09:22:31;21810.25;;;-140.19;37.28
6869;BME280;3473;42.604;23.496;2022-09-09T09:24:33;21944.25;;;-140.19;36.99
6869;BME280;3473;42.604;23.496;2022-09-09T09:26:30;21957.84;;;-140.19;37.42
6869;BME280;3473;42.604;23.496;2022-09-09T09:28:26;22021.94;;;-140.19;37.93
6869;BME280;3473;42.604;23.496;2022-09-09T09:30:21;21940.38;;;-140.19;37.93
6869;BME280;3473;42.604;23.496;2022-09-09T09:32:16;21940.38;;;-140.19;37.93
6869;BME280;3473;42.604;23.496;2022-09-09T09:34:10;21810.25;;;-140.19;37.53
6869;BME280;3473;42.604;23.496;2022-09-09T09:36:04;21950.06;;;-140.19;36.90
6869;BME280;3473;42.604;23.496;2022-09-09T09:37:58;21806.38;;;-140.19;37.35
6869;BME280;3473;42.604;23.496;2022-09-09T09:39:51;21886.00;;;-140.19;37.27
6869;BME280;3473;42.604;23.496;2022-09-09T09:41:43;21903.47;;;-140.19;37.58
6869;BME280;3473;42.604;23.496;2022-09-09T09:43:37;21880.16;;;-140.19;37.92
6869;BME280;3473;42.604;23.496;2022-09-09T09:45:33;21963.66;;;-140.19;37.53
6869;BME280;3473;42.604;23.496;2022-09-09T09:47:25;21682.06;;;-140.19;37.87
6869;BME280;3473;42.604;23.496;2022-09-09T09:49:18;21889.88;;;-140.19;37.73
6869;BME280;3473;42.604;23.496;2022-09-09T09:51:14;21953.97;;;-140.19;37.78
6869;BME280;3473;42.604;23.496;2022-09-09T09:53:20;21928.72;;;-140.19;38.01
6869;BME280;3473;42.604;23.496;2022-09-09T09:55:13;21936.47;;;-140.19;38.50
6869;BME280;3473;42.604;23.496;2022-09-09T09:57:10;21847.16;;;-140.19;37.83
6869;BME280;3473;42.604;23.496;2022-09-09T09:59:02;21897.63;;;-140.19;37.80
6869;BME280;3473;42.604;23.496;2022-09-09T10:00:55;21819.97;;;-140.19;37.47
6869;BME280;3473;42.604;23.496;2022-09-09T10:02:47;21825.78;;;-140.19;36.59